Time;durP1;ratioP1;P1;durP2;ratioP2;P2;SDS_P1;SDS_P2;PMS_P1;PMS_P2;Temp;Humidity;BMP_temperature;BMP_pressure;BME280_temperature;BME280_humidity;BME280_pressure;Samples;Min_cycle;Max_cycle;Signal;HPM_P1;HPM_P2
2022/07/26 00:02:00;;;;;;;;;;;;;;;22.92;41.40;99629.84;1812425;79;20173;-78
2022/07/26 00:04:26;;;;;;;;;;;;;;;22.84;41.54;99630.36;1812274;79;20146;-79
2022/07/26 00:06:52;;;;;;;;;;;;;;;22.77;41.66;99623.00;1812434;79;20209;-79
2022/07/26 00:09:18;;;;;;;;;;;;;;;22.74;41.81;99619.46;1812391;79;21822;-78
2022/07/26 00:11:44;;;;;;;;;;;;;;;22.77;41.81;99618.38;1812289;79;20184;-78
2022/07/26 00:14:10;;;;;;;;;;;;;;;22.78;41.81;99613.77;1812344;78;20196;-79
2022/07/26 00:16:36;;;;;;;;;;;;;;;22.75;41.86;99606.16;1812572;79;20748;-78
2022/07/26 00:19:03;;;;;;;;;;;;;;;22.69;41.91;99603.98;1812288;79;20608;-79
2022/07/26 00:21:29;;;;;;;;;;;;;;;22.61;42.03;99606.36;1812720;79;21172;-78
2022/07/26 00:23:56;;;;;;;;;;;;;;;22.54;42.13;99603.08;1812162;79;20137;-79
2022/07/26 00:26:21;;;;;;;;;;;;;;;22.48;42.22;99609.59;1812433;79;20178;-79
2022/07/26 00:28:47;;;;;;;;;;;;;;;22.43;42.32;99613.63;1812416;79;20157;-79
2022/07/26 00:31:13;;;;;;;;;;;;;;;22.40;42.37;99614.45;1812216;79;20232;-78
2022/07/26 00:33:39;;;;;;;;;;;;;;;22.33;42.49;99623.39;1812434;79;21313;-78
2022/07/26 00:36:05;;;;;;;;;;;;;;;22.29;42.60;99618.20;1812344;79;20781;-79
2022/07/26 00:38:31;;;;;;;;;;;;;;;22.25;42.71;99606.77;1812458;79;20190;-78
2022/07/26 00:40:57;;;;;;;;;;;;;;;22.21;42.81;99617.34;1812438;79;20161;-78
2022/07/26 00:43:23;;;;;;;;;;;;;;;22.17;42.86;99616.23;1812719;79;20228;-79
2022/07/26 00:45:49;;;;;;;;;;;;;;;22.10;42.98;99617.02;1812463;79;21155;-79
2022/07/26 00:48:15;;;;;;;;;;;;;;;22.04;43.10;99626.23;1812480;79;20134;-79
2022/07/26 00:50:41;;;;;;;;;;;;;;;21.96;43.23;99626.72;1812460;79;20165;-79
2022/07/26 00:53:07;;;;;;;;;;;;;;;21.83;43.41;99634.77;1812369;79;20169;-78
2022/07/26 00:55:33;;;;;;;;;;;;;;;21.78;43.62;99646.11;1812478;79;20196;-79
2022/07/26 00:58:02;;;;;;;;;;;;;;;21.73;43.80;99652.35;1812412;79;21091;-78
2022/07/26 01:00:28;;;;;;;;;;;;;;;21.76;43.95;99666.75;1812690;79;20174;-78
2022/07/26 01:02:54;;;;;;;;;;;;;;;21.78;44.02;99659.69;1812483;79;20205;-78
2022/07/26 01:05:21;;;;;;;;;;;;;;;21.79;44.06;99655.91;1812259;79;20466;-78
2022/07/26 01:07:47;;;;;;;;;;;;;;;21.80;44.05;99650.77;1812508;79;20482;-78
2022/07/26 01:10:13;;;;;;;;;;;;;;;21.81;44.08;99657.84;1812371;79;21161;-78
2022/07/26 01:12:40;;;;;;;;;;;;;;;21.80;44.12;99708.59;1815460;78;20203;-78
2022/07/26 01:15:06;;;;;;;;;;;;;;;21.82;44.22;99687.95;1825058;78;20461;-78
2022/07/26 01:17:32;;;;;;;;;;;;;;;21.86;44.33;99716.22;1825783;78;20133;-78
2022/07/26 01:19:58;;;;;;;;;;;;;;;21.88;44.40;99703.22;1825471;78;20207;-78
2022/07/26 01:22:24;;;;;;;;;;;;;;;21.91;44.47;99731.23;1825265;78;21011;-78
2022/07/26 01:24:50;;;;;;;;;;;;;;;21.95;44.56;99725.57;1825400;78;20212;-78
2022/07/26 01:27:16;;;;;;;;;;;;;;;21.99;44.65;99733.45;1825592;78;20267;-78
2022/07/26 01:29:42;;;;;;;;;;;;;;;22.04;44.74;99729.42;1825436;78;20203;-78
2022/07/26 01:32:07;;;;;;;;;;;;;;;22.09;44.82;99728.12;1825437;78;20156;-78
2022/07/26 01:34:33;;;;;;;;;;;;;;;22.12;44.93;99730.31;1825772;78;20751;-79
2022/07/26 01:36:59;;;;;;;;;;;;;;;22.13;45.09;99730.56;1825166;78;20839;-78
2022/07/26 01:39:25;;;;;;;;;;;;;;;22.17;45.30;99736.29;1825474;78;20219;-78
2022/07/26 01:41:51;;;;;;;;;;;;;;;22.17;45.46;99745.27;1825487;78;20168;-78
2022/07/26 01:44:17;;;;;;;;;;;;;;;22.20;45.87;99740.66;1825556;78;20153;-78
2022/07/26 01:46:43;;;;;;;;;;;;;;;22.22;46.31;99749.39;1825257;78;21191;-78
2022/07/26 01:49:09;;;;;;;;;;;;;;;22.20;47.00;99761.03;1825435;78;20203;-78
2022/07/26 01:51:35;;;;;;;;;;;;;;;22.19;47.75;99775.72;1825539;78;20172;-78
2022/07/26 01:54:01;;;;;;;;;;;;;;;22.15;48.42;99779.20;1825202;78;20572;-78
2022/07/26 01:56:27;;;;;;;;;;;;;;;22.09;49.20;99771.58;1825668;78;20138;-78
2022/07/26 01:58:53;;;;;;;;;;;;;;;22.04;49.90;99775.59;1825203;78;21029;-78
2022/07/26 02:01:19;;;;;;;;;;;;;;;21.98;50.84;99782.08;1825342;78;20231;-78
2022/07/26 02:03:45;;;;;;;;;;;;;;;21.92;51.73;99792.59;1825492;78;20294;-78
2022/07/26 02:06:10;;;;;;;;;;;;;;;21.85;52.73;99796.03;1825113;78;20168;-78
2022/07/26 02:08:36;;;;;;;;;;;;;;;21.78;53.75;99804.92;1825295;78;20227;-79
2022/07/26 02:11:03;;;;;;;;;;;;;;;21.71;54.35;99813.84;1825497;78;21087;-78
2022/07/26 02:13:33;;;;;;;;;;;;;;;21.62;55.37;99818.08;1819646;78;20202;-78
2022/07/26 02:15:59;;;;;;;;;;;;;;;21.51;55.84;99814.44;1810879;79;20186;-78
2022/07/26 02:18:27;;;;;;;;;;;;;;;21.43;56.46;99827.66;1777320;79;20196;-78
2022/07/26 02:20:52;;;;;;;;;;;;;;;21.33;57.34;99837.30;1767202;81;20187;-78
2022/07/26 02:23:18;;;;;;;;;;;;;;;21.25;58.18;99844.52;1767216;81;21155;-78
2022/07/26 02:25:44;;;;;;;;;;;;;;;21.20;58.87;99837.70;1767362;80;20144;-78
2022/07/26 02:28:10;;;;;;;;;;;;;;;21.16;60.05;99858.25;1767464;81;20202;-78
2022/07/26 02:30:37;;;;;;;;;;;;;;;21.13;60.67;99858.77;1778486;79;20673;-78
2022/07/26 02:33:03;;;;;;;;;;;;;;;21.10;61.22;99863.34;1812126;79;20150;-78
2022/07/26 02:35:30;;;;;;;;;;;;;;;21.06;61.82;99862.16;1812572;79;21301;-78
2022/07/26 02:38:07;;;;;;;;;;;;;;;21.05;62.17;99870.53;1812252;79;20178;-78
2022/07/26 02:40:33;;;;;;;;;;;;;;;21.03;62.37;99869.45;1812707;79;20482;-78
2022/07/26 02:42:59;;;;;;;;;;;;;;;21.03;62.60;99864.03;1812549;79;20158;-78
2022/07/26 02:45:25;;;;;;;;;;;;;;;20.99;62.90;99872.37;1812563;79;20248;-78
2022/07/26 02:47:52;;;;;;;;;;;;;;;20.96;63.25;99883.72;1812572;79;21144;-78
2022/07/26 02:50:19;;;;;;;;;;;;;;;20.94;63.61;99881.78;1809194;79;20146;-78
2022/07/26 02:52:48;;;;;;;;;;;;;;;20.93;63.84;99877.45;1750602;80;20163;-78
2022/07/26 02:55:15;;;;;;;;;;;;;;;20.90;64.01;99883.34;1750612;80;20171;-78
2022/07/26 02:57:40;;;;;;;;;;;;;;;20.88;64.23;99886.32;1724452;82;20615;-78
2022/07/26 03:00:07;;;;;;;;;;;;;;;20.85;64.53;99894.13;1749644;82;21180;-78
2022/07/26 03:02:33;;;;;;;;;;;;;;;20.82;64.75;99891.39;1724253;82;20162;-78
2022/07/26 03:05:01;;;;;;;;;;;;;;;20.81;64.95;99904.65;1749767;81;20188;-78
2022/07/26 03:07:27;;;;;;;;;;;;;;;20.78;65.20;99907.86;1749069;82;20165;-78
2022/07/26 03:09:53;;;;;;;;;;;;;;;20.77;65.54;99906.74;1749867;82;20172;-78
2022/07/26 03:12:19;;;;;;;;;;;;;;;20.74;65.70;99909.95;1749591;82;21834;-79
2022/07/26 03:14:44;;;;;;;;;;;;;;;20.73;65.78;99916.44;1761744;80;20206;-78
2022/07/26 03:17:10;;;;;;;;;;;;;;;20.72;65.86;99921.59;1730562;83;20848;-78
2022/07/26 03:19:36;;;;;;;;;;;;;;;20.71;65.89;99910.45;1730737;83;20188;-78
2022/07/26 03:22:02;;;;;;;;;;;;;;;20.68;65.97;99916.38;1730209;83;20169;-77
2022/07/26 03:24:27;;;;;;;;;;;;;;;20.64;66.05;99913.86;1691100;83;21261;-78
2022/07/26 03:26:53;;;;;;;;;;;;;;;20.60;66.10;99920.84;1729992;83;20231;-78
2022/07/26 03:29:19;;;;;;;;;;;;;;;20.58;66.16;99928.41;1729758;83;20287;-78
2022/07/26 03:31:45;;;;;;;;;;;;;;;20.52;66.16;99934.79;1729704;83;20237;-78
2022/07/26 03:34:11;;;;;;;;;;;;;;;20.47;66.23;99941.50;1729873;83;20177;-78
2022/07/26 03:36:36;;;;;;;;;;;;;;;20.42;66.28;99949.00;1729601;83;20636;-78
2022/07/26 03:39:02;;;;;;;;;;;;;;;20.37;66.31;99945.66;1730513;83;20193;-78
2022/07/26 03:41:30;;;;;;;;;;;;;;;20.36;66.35;99957.58;1730740;83;20824;-78
2022/07/26 03:43:56;;;;;;;;;;;;;;;20.32;66.35;99957.77;1730777;83;20127;-78
2022/07/26 03:46:22;;;;;;;;;;;;;;;20.31;66.34;99957.48;1730704;81;20368;-78
2022/07/26 03:48:48;;;;;;;;;;;;;;;20.31;66.31;99965.60;1730787;83;21798;-78
2022/07/26 03:51:14;;;;;;;;;;;;;;;20.26;66.37;99957.38;1730224;82;20208;-78
2022/07/26 03:53:40;;;;;;;;;;;;;;;20.15;66.49;99959.60;1730776;83;20200;-78
2022/07/26 03:58:50;;;;;;;;;;;;;;;20.02;66.50;99968.00;1730645;83;20178;-78
2022/07/26 04:01:16;;;;;;;;;;;;;;;19.97;66.51;99965.73;1730735;82;21157;-78
2022/07/26 04:03:41;;;;;;;;;;;;;;;19.92;66.53;99968.63;1730288;83;20248;-78
2022/07/26 04:06:07;;;;;;;;;;;;;;;19.88;66.54;99969.34;1730607;82;20263;-78
2022/07/26 04:08:33;;;;;;;;;;;;;;;19.87;66.52;99978.55;1730667;83;20173;-78
2022/07/26 04:10:59;;;;;;;;;;;;;;;19.88;66.50;99982.88;1730926;82;20177;-78
2022/07/26 04:13:25;;;;;;;;;;;;;;;19.87;66.46;99975.84;1730550;82;21046;-77
2022/07/26 04:15:51;;;;;;;;;;;;;;;19.82;66.54;99979.27;1730735;83;20291;-78
2022/07/26 04:18:16;;;;;;;;;;;;;;;19.80;66.57;99984.11;1730728;82;20200;-78
2022/07/26 04:20:42;;;;;;;;;;;;;;;19.77;66.62;99977.00;1730419;83;20192;-78
2022/07/26 04:23:08;;;;;;;;;;;;;;;19.76;66.65;99984.81;1717763;83;20171;-78
2022/07/26 04:25:34;;;;;;;;;;;;;;;19.76;66.65;99987.52;1730428;82;21213;-77
2022/07/26 04:28:00;;;;;;;;;;;;;;;19.76;66.69;99983.47;1730517;83;20291;-78
2022/07/26 04:30:27;;;;;;;;;;;;;;;19.75;66.66;99993.98;1717050;83;20161;-77
2022/07/26 04:32:52;;;;;;;;;;;;;;;19.80;66.63;99996.81;1730687;83;20154;-78
2022/07/26 04:35:18;;;;;;;;;;;;;;;19.80;66.61;99991.40;1730732;81;20256;-78
2022/07/26 04:37:44;;;;;;;;;;;;;;;19.83;66.62;100004.45;1717472;83;21249;-78
2022/07/26 04:40:16;;;;;;;;;;;;;;;19.84;66.63;100007.45;1717446;83;20125;-78
2022/07/26 04:42:42;;;;;;;;;;;;;;;19.85;66.59;100008.55;1730698;83;20170;-77
2022/07/26 04:45:09;;;;;;;;;;;;;;;19.86;66.52;100016.14;1730857;82;20184;-78
2022/07/26 04:47:35;;;;;;;;;;;;;;;19.86;66.53;100020.20;1730794;83;20199;-78
2022/07/26 04:50:01;;;;;;;;;;;;;;;19.85;66.51;100014.48;1730720;83;21145;-78
2022/07/26 04:52:27;;;;;;;;;;;;;;;19.87;66.47;100021.86;1730428;81;20175;-77
2022/07/26 04:54:53;;;;;;;;;;;;;;;19.85;66.49;100035.61;1730699;83;20253;-78
2022/07/26 04:57:19;;;;;;;;;;;;;;;19.88;66.51;100023.48;1730968;83;20347;-78
2022/07/26 04:59:45;;;;;;;;;;;;;;;19.88;66.49;100026.19;1730623;81;20164;-78
2022/07/26 05:02:13;;;;;;;;;;;;;;;19.88;66.51;100026.19;1730750;81;21154;-78
2022/07/26 05:04:38;;;;;;;;;;;;;;;19.91;66.49;100027.09;1730503;83;20162;-78
2022/07/26 05:07:04;;;;;;;;;;;;;;;19.89;66.48;100035.95;1730863;82;20200;-78
2022/07/26 05:09:30;;;;;;;;;;;;;;;19.88;66.52;100037.84;1730780;82;20161;-78
2022/07/26 05:11:56;;;;;;;;;;;;;;;19.92;66.54;100049.01;1730905;83;20217;-78
2022/07/26 05:14:22;;;;;;;;;;;;;;;19.91;66.53;100051.45;1731003;81;21978;-78
2022/07/26 05:16:47;;;;;;;;;;;;;;;19.87;66.52;100052.45;1712192;82;20235;-78
2022/07/26 05:19:13;;;;;;;;;;;;;;;19.92;66.52;100050.36;1722881;83;20274;-78
2022/07/26 05:21:39;;;;;;;;;;;;;;;19.94;66.46;100045.55;1722356;83;20168;-78
2022/07/26 05:24:06;;;;;;;;;;;;;;;19.98;66.44;100049.42;1722719;83;20326;-78
2022/07/26 05:26:32;;;;;;;;;;;;;;;20.02;66.36;100057.34;1722536;83;21292;-78
2022/07/26 05:28:57;;;;;;;;;;;;;;;20.02;66.28;100060.05;1722610;83;20231;-78
2022/07/26 05:31:24;;;;;;;;;;;;;;;20.02;66.18;100067.37;1722905;82;20247;-78
2022/07/26 05:33:50;;;;;;;;;;;;;;;19.99;66.13;100063.23;1722467;83;20185;-78
2022/07/26 05:36:16;;;;;;;;;;;;;;;19.97;66.04;100056.42;1722754;83;20830;-78
2022/07/26 05:38:42;;;;;;;;;;;;;;;19.93;65.97;100065.55;1722529;83;21692;-78
2022/07/26 05:41:07;;;;;;;;;;;;;;;19.94;65.90;100068.56;1722661;83;20238;-77
2022/07/26 05:43:33;;;;;;;;;;;;;;;19.89;65.82;100073.85;1722513;83;20715;-77
2022/07/26 05:45:59;;;;;;;;;;;;;;;19.85;65.78;100080.27;1722623;83;20203;-78
2022/07/26 05:48:25;;;;;;;;;;;;;;;19.88;65.70;100088.44;1722808;83;20752;-78
2022/07/26 05:50:51;;;;;;;;;;;;;;;19.92;65.61;100103.14;1722709;83;21162;-78
2022/07/26 05:53:17;;;;;;;;;;;;;;;19.94;65.51;100110.52;1722539;83;20130;-78
2022/07/26 05:55:43;;;;;;;;;;;;;;;19.97;65.39;100114.09;1722837;83;20300;-78
2022/07/26 05:58:09;;;;;;;;;;;;;;;20.04;65.25;100117.50;1722820;83;20402;-78
2022/07/26 06:00:34;;;;;;;;;;;;;;;20.07;65.14;100115.66;1722652;83;20234;-78
2022/07/26 06:03:20;;;;;;;;;;;;;;;20.16;64.99;100126.40;1722808;83;21137;-78
2022/07/26 06:05:28;;;;;;;;;;;;;;;20.27;64.85;100121.52;1718183;83;20506;-78
2022/07/26 06:07:54;;;;;;;;;;;;;;;20.37;64.73;100125.79;1722815;83;20211;-78
2022/07/26 06:10:19;;;;;;;;;;;;;;;20.43;64.59;100124.84;1722738;83;20159;-78
2022/07/26 06:12:45;;;;;;;;;;;;;;;20.46;64.47;100128.13;1722686;83;20223;-78
2022/07/26 06:15:11;;;;;;;;;;;;;;;20.47;64.36;100131.14;1722588;83;21088;-78
2022/07/26 06:17:39;;;;;;;;;;;;;;;20.55;64.24;100122.08;1722312;83;20187;-78
2022/07/26 06:20:06;;;;;;;;;;;;;;;20.62;64.11;100132.80;1722583;83;20164;-78
2022/07/26 06:22:32;;;;;;;;;;;;;;;20.68;63.94;100124.52;1722681;83;20157;-78
2022/07/26 06:24:58;;;;;;;;;;;;;;;20.74;63.81;100122.71;1722866;83;20777;-78
2022/07/26 06:27:23;;;;;;;;;;;;;;;20.86;63.73;100129.71;1722658;82;21196;-78
2022/07/26 06:29:51;;;;;;;;;;;;;;;20.98;63.53;100136.44;1722625;83;20167;-78
2022/07/26 06:32:17;;;;;;;;;;;;;;;21.08;63.34;100137.14;1722803;83;20161;-78
2022/07/26 06:34:43;;;;;;;;;;;;;;;21.14;63.18;100134.86;1722594;83;20152;-78
2022/07/26 06:37:08;;;;;;;;;;;;;;;21.13;62.99;100134.56;1723050;83;20219;-78
2022/07/26 06:39:34;;;;;;;;;;;;;;;21.11;62.81;100134.79;1722864;83;21066;-78
2022/07/26 06:42:00;;;;;;;;;;;;;;;21.18;62.71;100146.30;1722777;83;20261;-78
2022/07/26 06:44:26;;;;;;;;;;;;;;;21.27;62.56;100139.95;1722586;83;20179;-78
2022/07/26 06:46:52;;;;;;;;;;;;;;;21.30;62.37;100149.78;1722612;83;20175;-78
2022/07/26 06:49:19;;;;;;;;;;;;;;;21.38;62.21;100148.03;1722646;83;20208;-78
2022/07/26 06:51:45;;;;;;;;;;;;;;;21.52;62.09;100143.61;1722335;83;21177;-78
2022/07/26 06:54:11;;;;;;;;;;;;;;;21.71;61.95;100147.73;1723807;82;20519;-78
2022/07/26 06:56:37;;;;;;;;;;;;;;;21.89;61.77;100146.06;1734097;82;20235;-78
2022/07/26 06:59:03;;;;;;;;;;;;;;;22.05;61.55;100146.61;1745126;82;20177;-78
2022/07/26 07:01:28;;;;;;;;;;;;;;;22.10;61.27;100149.37;1733519;82;20270;-78
2022/07/26 07:03:54;;;;;;;;;;;;;;;22.11;61.01;100151.03;1725441;81;21168;-78
2022/07/26 07:06:20;;;;;;;;;;;;;;;22.14;60.83;100154.60;1736212;81;20286;-78
2022/07/26 07:08:47;;;;;;;;;;;;;;;22.20;60.60;100152.79;1740544;82;20177;-77
2022/07/26 07:11:13;;;;;;;;;;;;;;;22.25;60.35;100153.66;1752715;82;20154;-77
2022/07/26 07:13:39;;;;;;;;;;;;;;;22.26;60.05;100156.67;1752612;82;20237;-78
2022/07/26 07:16:05;;;;;;;;;;;;;;;22.31;59.81;100153.19;1752337;82;21201;-78
2022/07/26 07:18:31;;;;;;;;;;;;;;;22.38;59.62;100151.92;1751200;82;20143;-77
2022/07/26 07:20:57;;;;;;;;;;;;;;;22.53;59.35;100150.46;1746433;82;20191;-78
2022/07/26 07:23:23;;;;;;;;;;;;;;;22.71;59.13;100152.88;1722965;82;20207;-78
2022/07/26 07:25:49;;;;;;;;;;;;;;;22.79;58.86;100145.10;1722705;83;20183;-78
2022/07/26 07:28:15;;;;;;;;;;;;;;;22.80;58.67;100142.64;1734982;82;21195;-78
2022/07/26 07:30:40;;;;;;;;;;;;;;;22.78;58.42;100154.33;1742488;82;20325;-78
2022/07/26 07:33:08;;;;;;;;;;;;;;;22.83;58.28;100154.93;1737874;81;20212;-78
2022/07/26 07:35:34;;;;;;;;;;;;;;;22.95;58.17;100154.22;1732205;82;20493;-78
2022/07/26 07:38:00;;;;;;;;;;;;;;;23.07;57.97;100150.82;1722710;82;20263;-78
2022/07/26 07:40:25;;;;;;;;;;;;;;;23.12;57.80;100150.84;1722624;83;21416;-78
2022/07/26 07:42:51;;;;;;;;;;;;;;;23.10;57.64;100159.82;1724113;81;20265;-78
2022/07/26 07:45:17;;;;;;;;;;;;;;;23.05;57.48;100159.76;1723427;82;20261;-78
2022/07/26 07:47:43;;;;;;;;;;;;;;;23.15;57.38;100159.85;1733931;81;20720;-78
2022/07/26 07:50:09;;;;;;;;;;;;;;;23.23;57.17;100163.47;1722579;83;20211;-78
2022/07/26 07:52:35;;;;;;;;;;;;;;;23.23;56.96;100162.11;1722161;83;21536;-78
2022/07/26 07:55:01;;;;;;;;;;;;;;;23.16;56.76;100161.50;1722161;83;20513;-78
2022/07/26 07:57:27;;;;;;;;;;;;;;;23.16;56.66;100164.22;1735231;82;20205;-78
2022/07/26 07:59:52;;;;;;;;;;;;;;;23.16;56.50;100166.95;1736510;82;20171;-78
2022/07/26 08:02:18;;;;;;;;;;;;;;;23.23;56.32;100169.45;1722598;83;20847;-78
2022/07/26 08:04:44;;;;;;;;;;;;;;;23.35;56.23;100168.22;1722473;82;22336;-79
2022/07/26 08:07:10;;;;;;;;;;;;;;;23.44;55.97;100169.11;1734703;81;20254;-78
2022/07/26 08:09:35;;;;;;;;;;;;;;;23.60;55.73;100155.92;1714513;83;20278;-78
2022/07/26 08:12:01;;;;;;;;;;;;;;;23.37;55.29;100164.69;1733332;83;20230;-78
2022/07/26 08:14:27;;;;;;;;;;;;;;;23.26;55.16;100162.95;1726757;81;20243;-78
2022/07/26 08:16:53;;;;;;;;;;;;;;;23.26;55.09;100161.59;1725958;81;21547;-78
2022/07/26 08:19:19;;;;;;;;;;;;;;;23.22;54.96;100165.91;1726198;81;20527;-78
2022/07/26 08:21:45;;;;;;;;;;;;;;;23.24;54.88;100162.94;1728738;81;20222;-78
2022/07/26 08:24:11;;;;;;;;;;;;;;;23.21;54.73;100175.17;1735898;82;20171;-78
2022/07/26 08:26:37;;;;;;;;;;;;;;;23.14;54.62;100167.76;1751842;81;20157;-78
2022/07/26 08:29:03;;;;;;;;;;;;;;;23.12;54.47;100168.53;1755782;81;21672;-78
2022/07/26 08:31:29;;;;;;;;;;;;;;;23.29;54.38;100163.79;1731929;81;20171;-78
2022/07/26 08:33:55;;;;;;;;;;;;;;;23.59;54.20;100155.63;1725525;81;20273;-78
2022/07/26 08:36:21;;;;;;;;;;;;;;;23.74;53.86;100153.03;1725419;83;20156;-78
2022/07/26 08:38:47;;;;;;;;;;;;;;;23.90;53.56;100165.66;1725599;82;20336;-78
2022/07/26 08:41:13;;;;;;;;;;;;;;;23.96;53.00;100160.50;1735385;81;21656;-78
2022/07/26 08:43:38;;;;;;;;;;;;;;;23.93;52.58;100161.03;1725517;82;20183;-78
2022/07/26 08:46:04;;;;;;;;;;;;;;;23.86;52.25;100167.26;1735292;81;20803;-78
2022/07/26 08:48:31;;;;;;;;;;;;;;;23.83;52.03;100166.42;1742800;82;20161;-78
2022/07/26 08:50:57;;;;;;;;;;;;;;;23.90;51.78;100167.02;1737657;81;20196;-78
2022/07/26 08:53:22;;;;;;;;;;;;;;;24.07;51.67;100173.11;1732569;81;21076;-78
2022/07/26 08:55:48;;;;;;;;;;;;;;;24.30;51.40;100164.56;1726234;81;20210;-78
2022/07/26 08:58:14;;;;;;;;;;;;;;;24.49;51.05;100168.19;1740898;81;20208;-78
2022/07/26 09:00:42;;;;;;;;;;;;;;;24.53;50.73;100169.27;1736532;81;20714;-78
2022/07/26 09:03:08;;;;;;;;;;;;;;;24.60;50.49;100165.20;1725435;82;20180;-78
2022/07/26 09:05:35;;;;;;;;;;;;;;;24.69;50.05;100177.80;1706689;81;21690;-78
2022/07/26 09:08:22;;;;;;;;;;;;;;;24.80;49.67;100171.29;1737753;81;20133;-78
2022/07/26 09:10:47;;;;;;;;;;;;;;;24.96;49.53;100175.72;1735351;81;20612;-78
2022/07/26 09:13:15;;;;;;;;;;;;;;;24.99;49.18;100179.27;1731100;81;20188;-78
2022/07/26 09:15:41;;;;;;;;;;;;;;;24.85;48.85;100182.23;1728303;82;20464;-78
2022/07/26 09:18:07;;;;;;;;;;;;;;;24.74;48.60;100175.07;1730818;82;21782;-78
2022/07/26 09:20:33;;;;;;;;;;;;;;;24.80;48.64;100178.11;1676761;83;20755;-79
2022/07/26 09:23:07;;;;;;;;;;;;;;;24.73;48.21;100176.18;1735365;82;20240;-78
2022/07/26 09:25:35;;;;;;;;;;;;;;;24.72;48.04;100174.53;1729643;81;20188;-78
2022/07/26 09:28:01;;;;;;;;;;;;;;;24.61;47.85;100175.58;1739875;82;20142;-81
2022/07/26 09:30:28;;;;;;;;;;;;;;;24.67;47.95;100178.05;1732623;82;22491;-81
2022/07/26 09:33:05;;;;;;;;;;;;;;;24.96;48.00;100174.34;1732590;82;20859;-85
2022/07/26 09:35:32;;;;;;;;;;;;;;;25.16;47.76;100169.45;1730601;82;20196;-80
2022/07/26 09:37:58;;;;;;;;;;;;;;;25.18;47.60;100166.75;1739056;81;20218;-81
2022/07/26 09:40:34;;;;;;;;;;;;;;;25.17;47.32;100176.02;1728090;81;20244;-81
2022/07/26 09:43:03;;;;;;;;;;;;;;;25.16;47.11;100178.47;1694985;82;20135;-80
2022/07/26 09:45:30;;;;;;;;;;;;;;;25.15;46.98;100178.22;1734410;82;20154;-80
2022/07/26 09:47:56;;;;;;;;;;;;;;;25.09;46.78;100181.18;1731262;81;20188;-81
2022/07/26 09:50:24;;;;;;;;;;;;;;;24.97;46.53;100180.09;1741639;82;20182;-83
2022/07/26 09:53:07;;;;;;;;;;;;;;;24.83;46.34;100176.23;1731981;82;20161;-80
2022/07/26 09:55:49;;;;;;;;;;;;;;;24.83;46.24;100185.78;1729910;81;21751;-82
2022/07/26 09:58:15;;;;;;;;;;;;;;;24.90;46.14;100184.98;1725307;82;20192;-83
2022/07/26 10:00:42;;;;;;;;;;;;;;;24.95;45.83;100182.79;1731842;81;20170;-82
2022/07/26 10:03:08;;;;;;;;;;;;;;;25.00;45.68;100183.64;1735550;82;20256;-82
2022/07/26 10:05:33;;;;;;;;;;;;;;;25.09;45.50;100177.91;1734375;82;20891;-81
2022/07/26 10:07:59;;;;;;;;;;;;;;;25.13;45.41;100180.92;1739915;81;21808;-81
2022/07/26 10:10:31;;;;;;;;;;;;;;;25.23;45.17;100179.02;1725616;82;20326;-81
2022/07/26 10:12:57;;;;;;;;;;;;;;;25.25;45.04;100185.05;1737599;82;20572;-82
2022/07/26 10:15:40;;;;;;;;;;;;;;;25.35;44.85;100177.41;1729730;81;20254;-82
2022/07/26 10:18:10;;;;;;;;;;;;;;;25.28;44.71;100187.77;1733119;81;20247;-81
2022/07/26 10:20:42;;;;;;;;;;;;;;;25.23;44.54;100188.58;1738385;81;22609;-80
2022/07/26 10:23:34;;;;;;;;;;;;;;;25.37;44.48;100185.34;1731386;81;20765;-81
2022/07/26 10:26:00;;;;;;;;;;;;;;;25.49;44.36;100185.87;1732097;81;20185;-81
2022/07/26 10:28:27;;;;;;;;;;;;;;;25.53;44.02;100184.27;1741538;81;20182;-82
2022/07/26 10:31:21;;;;;;;;;;;;;;;25.35;43.86;100187.78;1730629;81;20166;-81
2022/07/26 10:33:48;;;;;;;;;;;;;;;25.35;43.85;100179.59;1728716;81;21799;-80
2022/07/26 10:36:24;;;;;;;;;;;;;;;25.47;43.71;100188.06;1728497;81;20161;-80
2022/07/26 10:39:05;;;;;;;;;;;;;;;25.47;43.42;100183.97;1740125;81;21220;-81
2022/07/26 10:41:39;;;;;;;;;;;;;;;25.48;43.35;100185.05;1745857;81;20197;-81
2022/07/26 10:44:14;;;;;;;;;;;;;;;25.44;43.16;100188.63;1735459;81;20521;-82
2022/07/26 10:47:04;;;;;;;;;;;;;;;25.42;42.93;100192.15;1731656;81;22226;-81
2022/07/26 10:49:40;;;;;;;;;;;;;;;25.37;42.86;100188.86;1728089;81;20150;-81
2022/07/26 10:52:13;;;;;;;;;;;;;;;25.39;42.80;100176.31;1739342;81;20242;-82
2022/07/26 10:54:59;;;;;;;;;;;;;;;25.31;42.70;100177.13;1731998;81;20678;-82
2022/07/26 10:57:29;;;;;;;;;;;;;;;25.30;42.57;100175.48;1740533;81;20153;-83
2022/07/26 10:59:56;;;;;;;;;;;;;;;25.22;42.38;100174.68;1732220;81;21771;-82
2022/07/26 11:02:31;;;;;;;;;;;;;;;25.20;42.34;100180.94;1749181;81;20816;-82
2022/07/26 11:05:14;;;;;;;;;;;;;;;25.18;42.17;100180.40;1744962;81;20144;-82
2022/07/26 11:07:55;;;;;;;;;;;;;;;25.04;42.03;100186.11;1725688;82;20156;-82
2022/07/26 11:10:23;;;;;;;;;;;;;;;25.08;42.06;100184.48;1726242;81;20177;-83
2022/07/26 11:13:01;;;;;;;;;;;;;;;25.24;42.06;100176.58;1726365;81;21719;-82
2022/07/26 11:15:26;;;;;;;;;;;;;;;25.29;41.94;100177.96;1736552;81;20637;-82
2022/07/26 11:18:10;;;;;;;;;;;;;;;25.32;41.82;100171.95;1752037;81;20283;-82
2022/07/26 11:20:36;;;;;;;;;;;;;;;25.48;41.75;100174.66;1744245;81;20262;-82
2022/07/26 11:23:02;;;;;;;;;;;;;;;25.81;41.64;100168.67;1741973;81;20183;-82
2022/07/26 11:25:28;;;;;;;;;;;;;;;26.09;41.42;100177.64;1713396;82;21841;-82
2022/07/26 11:28:02;;;;;;;;;;;;;;;26.37;41.07;100175.39;1750503;82;20868;-82
2022/07/26 11:30:28;;;;;;;;;;;;;;;26.46;40.87;100177.84;1733080;81;20187;-82
2022/07/26 11:32:56;;;;;;;;;;;;;;;26.47;40.80;100182.19;1739533;81;20239;-82
2022/07/26 11:35:22;;;;;;;;;;;;;;;26.42;40.68;100182.22;1743240;81;20207;-82
2022/07/26 11:37:54;;;;;;;;;;;;;;;26.41;40.51;100189.61;1736682;81;21799;-82
2022/07/26 11:40:40;;;;;;;;;;;;;;;26.30;40.47;100179.80;1733612;81;20180;-81
2022/07/26 11:43:06;;;;;;;;;;;;;;;26.16;40.32;100180.08;1732687;82;20164;-82
2022/07/26 11:45:32;;;;;;;;;;;;;;;25.80;40.19;100184.25;1743041;81;20202;-82
2022/07/26 11:47:58;;;;;;;;;;;;;;;25.56;40.27;100185.08;1752591;81;21537;-74
2022/07/26 11:50:24;;;;;;;;;;;;;;;25.44;40.42;100176.33;1743168;81;22923;-73
2022/07/26 11:52:51;;;;;;;;;;;;;;;25.37;40.57;100178.52;1741490;81;20774;-74
2022/07/26 11:55:28;;;;;;;;;;;;;;;25.39;40.62;100180.41;1734777;81;20184;-74
2022/07/26 11:57:54;;;;;;;;;;;;;;;25.33;40.61;100173.56;1757178;81;20825;-74
2022/07/26 12:00:22;;;;;;;;;;;;;;;25.28;40.70;100177.67;1752424;81;20246;-74
2022/07/26 12:02:48;;;;;;;;;;;;;;;25.30;40.81;100168.66;1747284;81;22461;-73
2022/07/26 12:05:19;;;;;;;;;;;;;;;25.52;40.92;100171.16;1753263;81;20700;-74
2022/07/26 12:07:56;;;;;;;;;;;;;;;25.66;40.85;100171.42;1742127;81;20468;-74
2022/07/26 12:10:22;;;;;;;;;;;;;;;25.61;40.80;100174.99;1733542;82;20643;-74
2022/07/26 12:12:48;;;;;;;;;;;;;;;25.44;40.85;100165.41;1733140;82;20442;-73
2022/07/26 12:15:14;;;;;;;;;;;;;;;25.29;40.96;100173.05;1709629;82;21754;-74
2022/07/26 12:17:57;;;;;;;;;;;;;;;25.22;41.08;100171.95;1724623;81;20176;-74
2022/07/26 12:20:26;;;;;;;;;;;;;;;25.12;41.12;100170.55;1721408;83;20177;-74
2022/07/26 12:22:59;;;;;;;;;;;;;;;25.16;41.18;100163.45;1721153;83;20201;-73
2022/07/26 12:25:26;;;;;;;;;;;;;;;25.28;41.25;100164.56;1721404;82;20154;-74
2022/07/26 12:27:52;;;;;;;;;;;;;;;25.40;41.30;100165.67;1729863;82;21740;-74
2022/07/26 12:30:18;;;;;;;;;;;;;;;25.53;41.28;100167.88;1747483;82;20654;-74
2022/07/26 12:32:44;;;;;;;;;;;;;;;25.78;41.37;100167.86;1741355;81;20200;-74
2022/07/26 12:35:14;;;;;;;;;;;;;;;25.91;41.27;100161.82;1736153;82;20190;-73
2022/07/26 12:37:50;;;;;;;;;;;;;;;25.92;41.19;100164.02;1728401;82;20172;-73
2022/07/26 12:40:17;;;;;;;;;;;;;;;25.66;41.04;100165.95;1725862;82;22559;-73
2022/07/26 12:42:46;;;;;;;;;;;;;;;25.53;41.14;100163.78;1724307;82;20638;-73
2022/07/26 12:45:12;;;;;;;;;;;;;;;25.50;41.08;100159.66;1738293;82;20160;-73